Time;durP1;ratioP1;P1;durP2;ratioP2;P2;SDS_P1;SDS_P2;PMS_P1;PMS_P2;Temp;Humidity;BMP_temperature;BMP_pressure;BME280_temperature;BME280_humidity;BME280_pressure;Samples;Min_cycle;Max_cycle;Signal;HPM_P1;HPM_P2
2023/09/11 00:00:19;;;;;;;1999.90;999.90;;;;;;;19.12;100.00;95006.38;5007211;28;20195;-59
2023/09/11 00:02:44;;;;;;;1999.90;999.90;;;;;;;19.09;100.00;95001.81;5007213;28;20195;-58
2023/09/11 00:05:10;;;;;;;1999.90;999.90;;;;;;;19.05;100.00;95006.75;5023653;28;20191;-58
2023/09/11 00:07:36;;;;;;;1999.90;999.90;;;;;;;19.05;100.00;94995.69;5007167;28;20216;-59
2023/09/11 00:10:01;;;;;;;1999.90;999.90;;;;;;;19.05;100.00;94990.13;5007158;28;20215;-59
2023/09/11 00:12:27;;;;;;;1999.90;999.90;;;;;;;19.03;100.00;94981.53;5007537;28;20203;-59
2023/09/11 00:14:52;;;;;;;1999.90;999.90;;;;;;;19.03;100.00;94981.53;5006846;28;20219;-59
2023/09/11 00:17:17;;;;;;;1999.90;999.90;;;;;;;19.01;100.00;94978.44;5006719;28;20172;-59
2023/09/11 00:19:43;;;;;;;1999.90;999.90;;;;;;;19.00;100.00;94974.16;5007397;28;20311;-58
2023/09/11 00:22:08;;;;;;;1999.90;999.90;;;;;;;18.98;100.00;94968.31;5006758;28;20202;-57
2023/09/11 00:24:33;;;;;;;1999.90;999.90;;;;;;;18.95;100.00;94960.94;5006760;28;20200;-58
2023/09/11 00:26:59;;;;;;;1999.90;999.90;;;;;;;18.96;100.00;94948.63;5007207;28;20211;-58
2023/09/11 00:29:24;;;;;;;1999.90;999.90;;;;;;;18.92;100.00;94948.81;5006677;28;20200;-58
2023/09/11 00:31:49;;;;;;;1999.90;999.90;;;;;;;18.89;100.00;94948.97;5006628;28;20195;-59
2023/09/11 00:34:15;;;;;;;1999.90;999.90;;;;;;;18.89;100.00;94949.75;5006591;28;20203;-60
2023/09/11 00:36:40;;;;;;;1999.90;999.90;;;;;;;18.90;100.00;94939.44;5006736;28;20422;-58
2023/09/11 00:39:05;;;;;;;1999.90;999.90;;;;;;;18.87;100.00;94940.38;5007040;28;20195;-59
2023/09/11 00:41:30;;;;;;;1999.90;999.90;;;;;;;18.85;100.00;94931.78;5022694;28;20196;-59
2023/09/11 00:43:56;;;;;;;1999.90;999.90;;;;;;;18.83;100.00;94931.50;5006480;28;20214;-59
2023/09/11 00:46:21;;;;;;;1999.90;999.90;;;;;;;18.82;100.00;94924.41;5006823;28;20205;-59
2023/09/11 00:48:52;;;;;;;1999.90;999.90;;;;;;;18.79;100.00;94928.88;5006694;28;20203;-60
2023/09/11 00:51:18;;;;;;;1999.90;999.90;;;;;;;18.75;100.00;94919.19;5006677;28;20231;-59
2023/09/11 00:53:43;;;;;;;1999.90;999.90;;;;;;;18.77;100.00;94909.22;5006696;28;20199;-57
2023/09/11 00:56:09;;;;;;;1999.90;999.90;;;;;;;18.76;100.00;94906.91;5006688;28;20227;-57
2023/09/11 00:58:34;;;;;;;1999.90;999.90;;;;;;;18.75;100.00;94899.84;5006093;28;20214;-59
2023/09/11 01:01:00;;;;;;;1999.90;999.90;;;;;;;18.70;100.00;94894.94;5006624;28;20196;-58
2023/09/11 01:03:26;;;;;;;1999.90;999.90;;;;;;;18.69;100.00;94890.66;5006082;28;20199;-58
2023/09/11 01:05:55;;;;;;;1999.90;999.90;;;;;;;18.66;100.00;94881.28;5006019;28;20219;-58
2023/09/11 01:08:21;;;;;;;1999.90;999.90;;;;;;;18.65;100.00;94873.47;5006005;28;20211;-58
2023/09/11 01:10:46;;;;;;;1999.90;999.90;;;;;;;18.64;100.00;94858.06;5006232;28;20230;-58
2023/09/11 01:13:12;;;;;;;1999.90;999.90;;;;;;;18.61;100.00;94850.75;5006195;28;20195;-59
2023/09/11 01:15:43;;;;;;;1999.90;999.90;;;;;;;18.61;100.00;94845.19;5005774;28;20200;-59
2023/09/11 01:18:26;;;;;;;1999.90;999.90;;;;;;;18.52;100.00;94836.94;5005876;28;20195;-59
2023/09/11 01:21:04;;;;;;;1999.90;999.90;;;;;;;18.56;100.00;94827.25;5006023;28;20196;-58
2023/09/11 01:23:48;;;;;;;1999.90;999.90;;;;;;;18.55;100.00;94831.25;5005868;28;20203;-59
2023/09/11 01:26:55;;;;;;;1999.90;999.90;;;;;;;18.56;100.00;94826.47;5022133;28;20196;-59
2023/09/11 01:29:25;;;;;;;1999.90;999.90;;;;;;;18.52;100.00;94831.41;4963073;28;20192;-59
2023/09/11 01:31:53;;;;;;;1999.90;999.90;;;;;;;18.50;100.00;94823.56;5005895;28;20238;-59
2023/09/11 01:34:18;;;;;;;1999.90;999.90;;;;;;;18.46;100.00;94825.75;5005737;28;20195;-59
2023/09/11 01:36:44;;;;;;;1999.90;999.90;;;;;;;18.44;100.00;94819.16;5005495;28;20196;-57
2023/09/11 01:39:10;;;;;;;1999.90;999.90;;;;;;;18.42;100.00;94816.06;5005347;28;20322;-60
2023/09/11 01:41:39;;;;;;;1999.90;999.90;;;;;;;18.41;100.00;94814.56;5005302;28;20192;-59
2023/09/11 01:44:29;;;;;;;1999.90;999.90;;;;;;;18.37;100.00;94811.19;5005382;28;20271;-59
2023/09/11 01:46:57;;;;;;;1999.90;999.90;;;;;;;18.36;100.00;94806.91;5022340;28;20207;-59
2023/09/11 01:49:24;;;;;;;1999.90;999.90;;;;;;;18.34;100.00;94798.25;5005023;28;20215;-60
2023/09/11 01:51:51;;;;;;;1999.90;999.90;;;;;;;18.29;100.00;94791.38;5005489;28;20211;-60
2023/09/11 01:54:18;;;;;;;1999.90;999.90;;;;;;;18.27;100.00;94784.78;5005597;28;20469;-58
2023/09/11 01:56:43;;;;;;;1999.90;999.90;;;;;;;18.24;100.00;94783.72;5005015;28;20278;-59
2023/09/11 01:59:08;;;;;;;1999.90;999.90;;;;;;;18.22;100.00;94777.13;5004750;28;20196;-60
2023/09/11 02:01:34;;;;;;;1999.90;999.90;;;;;;;18.18;100.00;94768.25;5005344;28;20192;-59
2023/09/11 02:03:59;;;;;;;1999.90;999.90;;;;;;;18.14;100.00;94756.59;5005148;28;20222;-59
2023/09/11 02:06:24;;;;;;;1999.90;999.90;;;;;;;18.11;100.00;94752.00;5004873;28;20196;-58
2023/09/11 02:08:50;;;;;;;1999.90;999.90;;;;;;;18.08;100.00;94742.66;5005049;28;20215;-59
2023/09/11 02:11:15;;;;;;;1999.90;999.90;;;;;;;18.09;100.00;94726.81;5004724;28;20188;-59
2023/09/11 02:13:41;;;;;;;1999.90;999.90;;;;;;;18.05;100.00;94717.91;5004929;28;20198;-59
2023/09/11 02:16:06;;;;;;;1999.90;999.90;;;;;;;18.03;100.00;94701.06;5004796;28;20190;-59
2023/09/11 02:18:31;;;;;;;1999.90;999.90;;;;;;;18.01;100.00;94704.28;5021088;28;20215;-59
2023/09/11 02:20:56;;;;;;;1999.90;999.90;;;;;;;18.01;100.00;94693.22;5004614;28;20192;-59
2023/09/11 02:23:22;;;;;;;1999.90;999.90;;;;;;;18.02;100.00;94682.94;5004874;28;20211;-59
2023/09/11 02:25:48;;;;;;;1999.90;999.90;;;;;;;18.02;100.00;94680.16;5005305;28;20219;-59
2023/09/11 02:28:14;;;;;;;1999.90;999.90;;;;;;;18.03;100.00;94678.94;5004843;28;20249;-58
2023/09/11 02:30:39;;;;;;;1999.90;999.90;;;;;;;18.05;100.00;94687.53;5004724;28;20191;-58
2023/09/11 02:33:04;;;;;;;1999.90;999.90;;;;;;;18.04;100.00;94680.47;5004903;28;20199;-58
2023/09/11 02:35:31;;;;;;;1999.90;999.90;;;;;;;18.02;100.00;94667.13;5004628;28;20199;-60
2023/09/11 02:37:56;;;;;;;1999.90;999.90;;;;;;;18.00;100.00;94675.13;5005148;28;20210;-58
2023/09/11 02:40:21;;;;;;;1999.90;999.90;;;;;;;17.97;100.00;94670.53;5004359;28;20196;-59
2023/09/11 02:42:47;;;;;;;1999.90;999.90;;;;;;;17.94;100.00;94671.47;5004523;28;20206;-58
2023/09/11 02:45:12;;;;;;;1999.90;999.90;;;;;;;17.93;100.00;94664.41;5004441;28;20201;-59
2023/09/11 02:47:37;;;;;;;1999.90;999.90;;;;;;;17.90;100.00;94653.53;5004434;28;20226;-59
2023/09/11 02:50:03;;;;;;;1999.90;999.90;;;;;;;17.87;100.00;94637.88;5004557;28;20270;-59
2023/09/11 02:52:28;;;;;;;1999.90;999.90;;;;;;;17.86;100.00;94623.31;5004354;28;20222;-59
2023/09/11 02:54:54;;;;;;;1999.90;999.90;;;;;;;17.85;100.00;94607.22;5004421;28;20211;-59
2023/09/11 02:57:20;;;;;;;1999.90;999.90;;;;;;;17.82;100.00;94597.09;5004500;28;20230;-59
2023/09/11 02:59:45;;;;;;;1999.90;999.90;;;;;;;17.81;100.00;94595.56;5004265;28;20203;-59
2023/09/11 03:02:10;;;;;;;1999.90;999.90;;;;;;;17.80;100.00;94583.75;5004439;28;20268;-59
2023/09/11 03:04:36;;;;;;;1999.90;999.90;;;;;;;17.81;100.00;94584.53;5004320;28;20223;-59
2023/09/11 03:07:01;;;;;;;1999.90;999.90;;;;;;;17.78;100.00;94582.69;5003911;28;20218;-59
2023/09/11 03:09:27;;;;;;;1999.90;999.90;;;;;;;17.78;100.00;94582.69;5004563;28;20327;-59
2023/09/11 03:11:52;;;;;;;1999.90;999.90;;;;;;;17.76;100.00;94582.38;5005157;28;20199;-59
2023/09/11 03:14:18;;;;;;;1999.90;999.90;;;;;;;17.74;100.00;94585.63;5008321;28;20210;-59
2023/09/11 03:16:43;;;;;;;1999.90;999.90;;;;;;;17.73;100.00;94580.56;5008223;28;20207;-58
2023/09/11 03:19:10;;;;;;;1999.90;999.90;;;;;;;17.72;100.00;94584.56;5008310;28;20195;-58
2023/09/11 03:21:35;;;;;;;1999.90;999.90;;;;;;;17.69;100.00;94577.97;5007823;28;20203;-58
2023/09/11 03:24:02;;;;;;;1999.90;999.90;;;;;;;17.64;100.00;94575.88;5007977;28;20187;-58
2023/09/11 03:26:27;;;;;;;1999.90;999.90;;;;;;;17.61;100.00;94576.81;5008641;28;20203;-59
2023/09/11 03:28:53;;;;;;;1999.90;999.90;;;;;;;17.62;100.00;94563.72;5007773;28;20241;-58
2023/09/11 03:31:19;;;;;;;1999.90;999.90;;;;;;;17.60;100.00;94557.94;5007656;28;20219;-59
2023/09/11 03:33:45;;;;;;;1999.90;999.90;;;;;;;17.60;100.00;94552.41;5007751;28;20227;-58
2023/09/11 03:36:17;;;;;;;1999.90;999.90;;;;;;;17.57;100.00;94547.81;5007497;28;20204;-60
2023/09/11 03:38:44;;;;;;;1999.90;999.90;;;;;;;17.55;100.00;94545.53;5007925;28;20266;-58
2023/09/11 03:41:10;;;;;;;1999.90;999.90;;;;;;;17.52;100.00;94534.66;5007606;28;20196;-59
2023/09/11 03:43:35;;;;;;;1999.90;999.90;;;;;;;17.50;100.00;94532.38;5008080;28;20195;-58
2023/09/11 03:46:01;;;;;;;1999.90;999.90;;;;;;;17.49;100.00;94527.31;5007447;28;20188;-58
2023/09/11 03:48:27;;;;;;;1999.90;999.90;;;;;;;17.46;100.00;94523.50;5007631;28;20212;-58
2023/09/11 03:50:52;;;;;;;1999.90;999.90;;;;;;;17.47;100.00;94515.97;5007609;28;20200;-58
2023/09/11 03:53:17;;;;;;;1999.90;999.90;;;;;;;17.46;100.00;94504.19;5007422;28;20218;-58
2023/09/11 03:55:43;;;;;;;1999.90;999.90;;;;;;;17.47;100.00;94500.16;5007309;28;20271;-57
2023/09/11 03:58:10;;;;;;;1999.90;999.90;;;;;;;17.45;100.00;94499.88;5007331;28;20200;-58
2023/09/11 04:00:35;;;;;;;1999.90;999.90;;;;;;;17.44;100.00;94506.63;5007249;28;20199;-59
2023/09/11 04:03:03;;;;;;;1999.90;999.90;;;;;;;17.42;100.00;94508.34;5007130;28;20199;-58
2023/09/11 04:05:28;;;;;;;1999.90;999.90;;;;;;;17.42;100.00;94502.81;5007191;28;20203;-59
2023/09/11 04:07:54;;;;;;;1999.90;999.90;;;;;;;17.40;100.00;94503.25;5007164;28;20455;-59
2023/09/11 04:10:19;;;;;;;1999.90;999.90;;;;;;;17.41;100.00;94498.50;5007130;28;20200;-60
2023/09/11 04:12:45;;;;;;;1999.90;999.90;;;;;;;17.38;100.00;94497.44;5007203;28;20241;-58
2023/09/11 04:15:10;;;;;;;1999.90;999.90;;;;;;;17.35;100.00;94497.59;5007315;28;20192;-59
2023/09/11 04:17:35;;;;;;;1999.90;999.90;;;;;;;17.30;100.00;94495.50;5007076;28;20192;-59
2023/09/11 04:20:01;;;;;;;1999.90;999.90;;;;;;;17.25;100.00;94487.84;5007181;28;20196;-59
2023/09/11 04:22:26;;;;;;;1999.90;999.90;;;;;;;17.24;100.00;94480.78;5006759;28;20226;-58
2023/09/11 04:24:51;;;;;;;1999.90;999.90;;;;;;;17.20;100.00;94485.72;5007284;28;20417;-58
2023/09/11 04:27:16;;;;;;;1999.90;999.90;;;;;;;17.16;100.00;94485.13;5006492;28;20226;-58
2023/09/11 04:29:42;;;;;;;1999.90;999.90;;;;;;;17.16;100.00;94479.63;5006598;28;20188;-58
2023/09/11 04:32:07;;;;;;;1999.90;999.90;;;;;;;17.14;100.00;94477.31;5006738;28;20226;-58
2023/09/11 04:34:33;;;;;;;1999.90;999.90;;;;;;;17.16;100.00;94469.34;5006656;28;20303;-59
2023/09/11 04:36:58;;;;;;;1999.90;999.90;;;;;;;17.14;100.00;94466.28;5006540;28;20227;-58
2023/09/11 04:39:23;;;;;;;1999.90;999.90;;;;;;;17.15;100.00;94453.25;5006355;28;20187;-58
2023/09/11 04:41:49;;;;;;;1999.90;999.90;;;;;;;17.06;100.00;94464.31;5006647;28;20187;-59
2023/09/11 04:44:14;;;;;;;1999.90;999.90;;;;;;;17.07;100.00;94457.56;5023028;28;20188;-59
2023/09/11 04:46:39;;;;;;;1999.90;999.90;;;;;;;17.10;100.00;94459.41;5023078;28;20227;-59
2023/09/11 04:49:05;;;;;;;1999.90;999.90;;;;;;;17.15;100.00;94439.47;5022634;28;20191;-59
2023/09/11 04:51:31;;;;;;;1999.90;999.90;;;;;;;17.18;100.00;94433.00;5006838;28;20210;-59
2023/09/11 04:53:57;;;;;;;1999.90;999.90;;;;;;;17.18;100.00;94431.00;5006052;28;20200;-60
2023/09/11 04:56:22;;;;;;;1999.90;999.90;;;;;;;17.24;100.00;94436.63;5006670;28;20187;-59
2023/09/11 04:58:47;;;;;;;1999.90;999.90;;;;;;;17.29;100.00;94433.22;5006493;28;20203;-61
2023/09/11 05:01:13;;;;;;;1999.90;999.90;;;;;;;17.42;100.00;94437.34;5006716;28;20209;-61
2023/09/11 05:03:39;;;;;;;1999.90;999.90;;;;;;;17.63;100.00;94452.06;5005846;28;20254;-59
2023/09/11 05:06:04;;;;;;;1999.90;999.90;;;;;;;17.89;100.00;94470.41;5006079;28;20196;-59
2023/09/11 05:08:29;;;;;;;1999.90;999.90;;;;;;;18.17;100.00;94526.25;5006559;28;20223;-59
2023/09/11 05:10:55;;;;;;;1999.90;999.90;;;;;;;18.37;100.00;94603.81;5005742;28;20199;-60
2023/09/11 05:13:20;;;;;;;1999.90;999.90;;;;;;;18.60;100.00;94710.88;5005778;28;20205;-59
2023/09/11 05:15:48;;;;;;;1999.90;999.90;;;;;;;18.98;100.00;94789.16;5022239;28;20213;-59
2023/09/11 05:18:14;;;;;;;1999.90;999.90;;;;;;;19.36;100.00;94888.16;5006174;28;20203;-60
2023/09/11 05:20:40;;;;;;;1999.90;999.90;;;;;;;19.75;100.00;94985.94;5005840;28;20199;-60
2023/09/11 05:23:05;;;;;;;1999.90;999.90;;;;;;;20.10;100.00;95054.25;5006425;28;20206;-59
2023/09/11 05:25:31;;;;;;;1999.90;999.90;;;;;;;20.44;100.00;95120.28;5005194;28;20198;-60
2023/09/11 05:27:56;;;;;;;1999.90;999.90;;;;;;;20.60;100.00;95172.56;5005987;28;20223;-60
2023/09/11 05:30:21;;;;;;;1999.90;999.90;;;;;;;20.50;100.00;95201.59;5005749;28;20188;-60
2023/09/11 05:32:51;;;;;;;1999.90;999.90;;;;;;;20.51;100.00;95207.94;5005981;28;20225;-60
2023/09/11 05:35:17;;;;;;;1999.90;999.90;;;;;;;20.55;100.00;95220.41;5005006;28;20192;-60
2023/09/11 05:37:43;;;;;;;1999.90;999.90;;;;;;;20.51;100.00;95228.16;5005320;28;20226;-60
2023/09/11 05:40:08;;;;;;;1999.90;999.90;;;;;;;20.39;100.00;95226.34;5005923;28;20188;-60
2023/09/11 05:42:34;;;;;;;1999.90;999.90;;;;;;;20.32;100.00;95218.34;5005757;28;20227;-61
2023/09/11 05:44:59;;;;;;;1999.90;999.90;;;;;;;20.46;100.00;95209.34;5005040;28;20195;-59
2023/09/11 05:47:24;;;;;;;1999.90;999.90;;;;;;;21.03;100.00;95210.06;5005150;28;20291;-60
2023/09/11 05:49:50;;;;;;;1999.90;999.90;;;;;;;21.67;100.00;95247.16;5005157;28;20202;-58
2023/09/11 05:52:15;;;;;;;1999.90;999.90;;;;;;;22.38;100.00;95272.66;5005218;28;20238;-58
2023/09/11 05:54:41;;;;;;;1999.90;999.90;;;;;;;22.76;100.00;95294.75;5005362;28;20187;-57
2023/09/11 05:57:06;;;;;;;1999.90;999.90;;;;;;;23.50;100.00;95321.88;5005270;28;20271;-60
2023/09/11 05:59:32;;;;;;;1999.90;999.90;;;;;;;23.54;100.00;95333.59;5004823;28;20222;-57
2023/09/11 06:01:57;;;;;;;1999.90;999.90;;;;;;;24.09;100.00;95333.44;5004890;28;20199;-58
2023/09/11 06:04:22;;;;;;;1999.90;999.90;;;;;;;24.32;100.00;95343.56;5004664;28;20203;-58
2023/09/11 06:06:48;;;;;;;1999.90;999.90;;;;;;;24.89;100.00;95341.53;5004870;28;20278;-57
2023/09/11 06:09:13;;;;;;;1999.90;999.90;;;;;;;25.24;100.00;95342.00;5004938;28;20199;-59
2023/09/11 06:11:38;;;;;;;1999.90;999.90;;;;;;;25.60;100.00;95338.38;5004698;28;20191;-58
2023/09/11 06:14:06;;;;;;;1999.90;999.90;;;;;;;25.89;100.00;95343.56;5021222;28;20196;-58
2023/09/11 06:16:32;;;;;;;1999.90;999.90;;;;;;;26.38;100.00;95348.56;5005045;28;20220;-57
2023/09/11 06:18:58;;;;;;;1999.90;999.90;;;;;;;26.58;100.00;95337.09;5004955;28;20206;-58
2023/09/11 06:21:24;;;;;;;1999.90;999.90;;;;;;;27.00;100.00;95348.09;5004640;28;20262;-60
2023/09/11 06:23:50;;;;;;;1999.90;999.90;;;;;;;27.44;100.00;95347.25;5005090;28;20202;-57
2023/09/11 06:26:15;;;;;;;1999.90;999.90;;;;;;;27.90;100.00;95353.72;5004440;28;20195;-57
2023/09/11 06:28:41;;;;;;;1999.90;999.90;;;;;;;28.32;100.00;95346.88;5004773;28;20207;-58
2023/09/11 06:31:07;;;;;;;1999.90;999.90;;;;;;;28.80;100.00;95347.06;5004696;28;20206;-57
2023/09/11 06:33:32;;;;;;;1999.90;999.90;;;;;;;29.39;100.00;95354.72;5004215;28;20251;-57
2023/09/11 06:35:58;;;;;;;1999.90;999.90;;;;;;;29.79;100.00;95348.91;5004700;28;20237;-58
2023/09/11 06:38:23;;;;;;;1999.90;999.90;;;;;;;30.13;100.00;95347.22;5004448;28;20196;-59
2023/09/11 06:40:48;;;;;;;1999.90;999.90;;;;;;;30.51;100.00;95350.78;5004073;28;20196;-57
2023/09/11 06:43:16;;;;;;;1999.90;999.90;;;;;;;31.18;100.00;95345.63;5004487;28;20196;-58
2023/09/11 06:45:42;;;;;;;1999.90;999.90;;;;;;;31.64;100.00;95350.69;5004098;28;20195;-58
2023/09/11 06:48:11;;;;;;;1999.90;999.90;;;;;;;31.56;100.00;95349.81;5004078;28;20287;-58
2023/09/11 06:50:38;;;;;;;1999.90;999.90;;;;;;;32.06;100.00;95349.59;5004292;28;20227;-58
2023/09/11 06:53:05;;;;;;;1999.90;999.90;;;;;;;32.21;100.00;95352.63;5004694;28;20306;-58
2023/09/11 06:55:31;;;;;;;1999.90;999.90;;;;;;;32.51;100.00;95353.00;5003965;28;20215;-58
2023/09/11 06:58:01;;;;;;;1999.90;999.90;;;;;;;32.80;100.00;95346.16;5004225;28;20195;-58
2023/09/11 07:00:27;;;;;;;1999.90;999.90;;;;;;;33.17;100.00;95351.44;5004408;28;20191;-58
2023/09/11 07:02:54;;;;;;;1999.90;999.90;;;;;;;33.32;100.00;95345.88;5004479;28;20195;-57
2023/09/11 07:05:22;;;;;;;1999.90;999.90;;;;;;;33.47;100.00;95334.69;5004489;28;20199;-57
2023/09/11 07:07:48;;;;;;;1999.90;999.90;;;;;;;33.65;100.00;95335.78;5004166;28;20278;-57
2023/09/11 07:10:20;;;;;;;1999.90;999.90;;;;;;;33.95;100.00;95340.88;5004320;28;20312;-57
2023/09/11 07:12:47;;;;;;;1999.90;999.90;;;;;;;34.01;100.00;95338.66;5004113;28;20223;-57
2023/09/11 07:15:12;;;;;;;1999.90;999.90;;;;;;;34.31;100.00;95338.78;5004424;28;20195;-57
2023/09/11 07:17:38;;;;;;;1999.90;999.90;;;;;;;34.14;100.00;95338.50;5004430;28;20195;-57
2023/09/11 07:20:09;;;;;;;1999.90;999.90;;;;;;;34.54;100.00;95342.47;5003866;28;20195;-57
2023/09/11 07:22:34;;;;;;;1999.90;999.90;;;;;;;34.99;100.00;95342.63;5004269;28;20195;-58
2023/09/11 07:25:00;;;;;;;1999.90;999.90;;;;;;;35.36;100.00;95347.59;5004364;28;20199;-57
2023/09/11 07:27:33;;;;;;;1999.90;999.90;;;;;;;35.43;100.00;95346.84;5004028;28;20219;-57
2023/09/11 07:30:03;;;;;;;1999.90;999.90;;;;;;;35.68;99.96;95344.91;5004172;28;20195;-57
2023/09/11 07:32:32;;;;;;;1999.90;999.90;;;;;;;35.97;99.28;95344.13;5004382;28;20200;-58
2023/09/11 07:34:58;;;;;;;1999.90;999.90;;;;;;;35.91;97.77;95357.03;5003860;28;20200;-58
2023/09/11 07:37:23;;;;;;;1999.90;999.90;;;;;;;35.64;97.62;95344.53;5004484;28;20199;-59
2023/09/11 07:39:49;;;;;;;1999.90;999.90;;;;;;;36.05;94.95;95342.00;5003909;28;20199;-58
2023/09/11 07:42:14;;;;;;;1999.90;999.90;;;;;;;36.69;90.33;95349.94;5004095;28;20200;-57
2023/09/11 07:44:40;;;;;;;1999.90;999.90;;;;;;;36.85;90.35;95342.81;5004330;28;20199;-58
2023/09/11 07:47:05;;;;;;;1999.90;999.90;;;;;;;37.37;84.17;95343.81;5004012;28;20245;-57
2023/09/11 07:49:31;;;;;;;1999.90;999.90;;;;;;;36.95;86.33;95346.56;5004093;28;20203;-58
2023/09/11 07:51:56;;;;;;;1999.90;999.90;;;;;;;37.57;82.86;95340.59;5004256;28;20251;-59
2023/09/11 07:54:22;;;;;;;1999.90;999.90;;;;;;;37.79;78.53;95351.06;5004280;28;20270;-58
2023/09/11 07:56:47;;;;;;;1999.90;999.90;;;;;;;37.64;79.76;95354.06;5004086;28;20279;-58
2023/09/11 07:59:12;;;;;;;1999.90;999.90;;;;;;;38.13;77.54;95344.69;5006501;28;20207;-58
2023/09/11 08:01:37;;;;;;;1999.90;999.90;;;;;;;38.09;78.07;95345.06;5007351;28;20219;-58
2023/09/11 08:04:04;;;;;;;1999.90;999.90;;;;;;;37.72;80.02;95346.19;5007379;28;20202;-57
2023/09/11 08:06:29;;;;;;;1999.90;999.90;;;;;;;38.41;77.00;95341.28;5007167;28;20218;-58
2023/09/11 08:08:56;;;;;;;1999.90;999.90;;;;;;;38.77;73.38;95338.56;5007394;28;20290;-58
2023/09/11 08:11:21;;;;;;;1999.90;999.90;;;;;;;38.57;72.13;95343.41;5007344;28;20192;-58
2023/09/11 08:13:48;;;;;;;1999.90;999.90;;;;;;;38.38;72.28;95343.22;5007153;28;20230;-58
2023/09/11 08:16:14;;;;;;;1999.90;999.90;;;;;;;38.54;72.02;95344.59;5007171;28;20271;-58
2023/09/11 08:18:40;;;;;;;1999.90;999.90;;;;;;;38.48;70.97;95338.34;5006788;28;20235;-58
2023/09/11 08:21:05;;;;;;;1999.90;999.90;;;;;;;38.94;71.14;95347.88;5006882;28;20198;-57
2023/09/11 08:23:30;;;;;;;1999.90;999.90;;;;;;;38.65;72.78;95338.34;5007281;28;20210;-58
2023/09/11 08:25:57;;;;;;;1999.90;999.90;;;;;;;38.89;71.98;95340.28;5007141;28;20230;-57
2023/09/11 08:28:22;;;;;;;1999.90;999.90;;;;;;;39.13;70.39;95339.41;5006754;28;20274;-57
2023/09/11 08:30:50;;;;;;;1999.90;999.90;;;;;;;38.99;67.63;95335.41;5006747;28;20238;-57
2023/09/11 08:33:15;;;;;;;1999.90;999.90;;;;;;;37.93;71.38;95340.84;5006703;28;20208;-57
2023/09/11 08:35:40;;;;;;;1999.90;999.90;;;;;;;37.67;75.56;95337.88;5006558;28;20253;-58
2023/09/11 08:38:06;;;;;;;1999.90;999.90;;;;;;;37.60;75.53;95333.75;5006759;28;20232;-57
2023/09/11 08:40:31;;;;;;;1999.90;999.90;;;;;;;38.12;74.44;95332.50;5006675;28;20203;-58
2023/09/11 08:42:57;;;;;;;1999.90;999.90;;;;;;;37.64;74.97;95334.09;5006437;28;20200;-57
2023/09/11 08:45:25;;;;;;;1999.90;999.90;;;;;;;37.54;77.09;95330.38;5006604;28;20196;-59
2023/09/11 08:47:54;;;;;;;1999.90;999.90;;;;;;;38.04;74.30;95325.31;5006943;28;20204;-57
2023/09/11 08:50:22;;;;;;;1999.90;999.90;;;;;;;37.96;75.66;95331.13;5006842;28;20259;-57
2023/09/11 08:52:49;;;;;;;1999.90;999.90;;;;;;;38.47;71.35;95331.13;5006778;28;20223;-57
2023/09/11 08:55:18;;;;;;;1999.90;999.90;;;;;;;38.47;70.36;95331.13;5006517;28;20254;-57
2023/09/11 08:57:43;;;;;;;1999.90;999.90;;;;;;;38.85;65.25;95337.09;5006408;28;20278;-57
2023/09/11 09:00:13;;;;;;;1999.90;999.90;;;;;;;38.59;63.71;95329.28;5006102;28;20207;-57
2023/09/11 09:02:39;;;;;;;1999.90;999.90;;;;;;;38.45;63.63;95330.94;5006084;28;20210;-57
2023/09/11 09:05:06;;;;;;;1999.90;999.90;;;;;;;38.05;57.98;95332.56;5005998;28;20195;-57
2023/09/11 09:07:32;;;;;;;1999.90;999.90;;;;;;;37.34;62.34;95334.34;5006024;28;20200;-58
2023/09/11 09:09:58;;;;;;;1999.90;999.90;;;;;;;37.29;64.56;95323.94;5005214;28;20272;-57
2023/09/11 09:12:25;;;;;;;1999.90;999.90;;;;;;;36.84;63.27;95320.66;5005917;28;20195;-57
2023/09/11 09:14:50;;;;;;;1999.90;999.90;;;;;;;37.20;65.79;95318.88;5006048;28;20204;-57
2023/09/11 09:17:16;;;;;;;1999.90;999.90;;;;;;;37.86;62.61;95323.81;5005859;28;20215;-57
2023/09/11 09:19:41;;;;;;;1999.90;999.90;;;;;;;37.76;61.32;95318.00;5006163;28;20187;-57
2023/09/11 09:22:08;;;;;;;1999.90;999.90;;;;;;;37.74;60.17;95320.72;5006164;28;20227;-57
2023/09/11 09:24:35;;;;;;;1999.90;999.90;;;;;;;37.72;57.09;95323.38;5005996;28;20203;-57
2023/09/11 09:27:05;;;;;;;1999.90;999.90;;;;;;;37.13;61.60;95313.97;5005379;28;20210;-57
2023/09/11 09:29:35;;;;;;;1999.90;999.90;;;;;;;37.77;59.92;95313.84;5005842;28;20204;-58
2023/09/11 09:32:05;;;;;;;1999.90;999.90;;;;;;;37.97;59.96;95309.81;5005394;28;20195;-57
2023/09/11 09:34:37;;;;;;;1999.90;999.90;;;;;;;36.64;64.07;95302.50;5005578;28;20206;-58
2023/09/11 09:37:02;;;;;;;1999.90;999.90;;;;;;;37.30;61.14;95302.66;5005393;28;20196;-57
2023/09/11 09:39:29;;;;;;;1999.90;999.90;;;;;;;36.50;64.82;95290.63;5005487;28;20212;-57
2023/09/11 09:42:01;;;;;;;1999.90;999.90;;;;;;;37.32;65.12;95297.09;5005410;28;20195;-57
2023/09/11 09:44:33;;;;;;;1999.90;999.90;;;;;;;38.03;57.04;95296.03;5005631;28;20188;-58
2023/09/11 09:47:16;;;;;;;1999.90;999.90;;;;;;;38.29;57.20;95301.09;5022034;28;20233;-57
2023/09/11 09:49:53;;;;;;;1999.90;999.90;;;;;;;38.02;57.52;95308.78;5005168;28;20199;-57
2023/09/11 09:52:20;;;;;;;1999.90;999.90;;;;;;;38.55;50.12;95294.66;5005130;28;20202;-57
2023/09/11 09:54:57;;;;;;;1999.90;999.90;;;;;;;37.42;48.38;95306.53;5005073;28;20196;-57
2023/09/11 09:57:25;;;;;;;1999.90;999.90;;;;;;;36.74;51.76;95296.97;5005167;28;20215;-57
2023/09/11 09:59:57;;;;;;;1999.90;999.90;;;;;;;36.40;53.65;95300.34;5005118;28;20202;-57
2023/09/11 10:02:31;;;;;;;1999.90;999.90;;;;;;;36.56;55.86;95287.56;5005802;28;20168;-57
2023/09/11 10:05:08;;;;;;;1999.90;999.90;;;;;;;36.84;56.10;95287.19;5005340;28;20212;-57
2023/09/11 10:07:37;;;;;;;1999.90;999.90;;;;;;;36.89;56.55;95271.97;5004981;28;20266;-57
2023/09/11 10:10:18;;;;;;;1999.90;999.90;;;;;;;36.83;57.41;95268.59;5021288;28;20275;-57
2023/09/11 10:12:43;;;;;;;1999.90;999.90;;;;;;;36.86;56.63;95278.84;5020995;28;20203;-57
2023/09/11 10:15:09;;;;;;;1999.90;999.90;;;;;;;36.31;59.99;95270.41;5004879;28;20223;-57
2023/09/11 10:17:35;;;;;;;1999.90;999.90;;;;;;;36.38;57.93;95263.16;5004764;28;20207;-57
2023/09/11 10:20:03;;;;;;;1999.90;999.90;;;;;;;36.14;58.42;95260.97;5004644;28;20195;-57
2023/09/11 10:22:28;;;;;;;1999.90;999.90;;;;;;;35.86;62.57;95261.25;5004790;28;20191;-58
2023/09/11 10:24:54;;;;;;;1999.90;999.90;;;;;;;36.03;61.88;95261.41;5004724;28;20263;-58
2023/09/11 10:27:19;;;;;;;1999.90;999.90;;;;;;;36.05;61.63;95255.91;5004681;28;20196;-57
2023/09/11 10:30:03;;;;;;;1999.90;999.90;;;;;;;35.41;65.79;95247.91;5004818;28;20187;-57
2023/09/11 10:32:37;;;;;;;1999.90;999.90;;;;;;;35.30;67.61;95242.63;5004660;28;20230;-58
2023/09/11 10:35:05;;;;;;;1999.90;999.90;;;;;;;35.51;68.20;95245.25;5004654;28;20191;-57
2023/09/11 10:37:33;;;;;;;1999.90;999.90;;;;;;;35.50;67.36;95249.44;5004234;28;20211;-57
2023/09/11 10:40:00;;;;;;;1999.90;999.90;;;;;;;35.30;67.76;95241.88;5004904;28;20195;-57
2023/09/11 10:42:26;;;;;;;1999.90;999.90;;;;;;;35.09;71.83;95241.28;5004889;28;20207;-58
2023/09/11 10:44:55;;;;;;;1999.90;999.90;;;;;;;35.92;65.24;95247.59;5004039;28;20198;-57
2023/09/11 10:47:22;;;;;;;1999.90;999.90;;;;;;;35.30;70.64;95241.88;5004179;28;20237;-58